Time;durP1;ratioP1;P1;durP2;ratioP2;P2;SDS_P1;SDS_P2;PMS_P1;PMS_P2;Temp;Humidity;BMP_temperature;BMP_pressure;BME280_temperature;BME280_humidity;BME280_pressure;Samples;Min_cycle;Max_cycle;Signal;HPM_P1;HPM_P2
2021/09/10 00:01:05;;;;;;;;;;;25.50;57.40;;;;;;490500;242;2180;-44
2021/09/10 00:03:06;;;;;;;;;;;25.50;57.50;;;;;;490057;242;1242;-44
2021/09/10 00:05:07;;;;;;;;;;;25.50;57.40;;;;;;490542;242;1232;-45
2021/09/10 00:07:09;;;;;;;;;;;25.50;57.50;;;;;;490013;242;1363;-44
2021/09/10 00:09:10;;;;;;;;;;;25.50;57.10;;;;;;490111;242;1067;-44
2021/09/10 00:11:11;;;;;;;;;;;25.50;56.90;;;;;;490504;242;1039;-44
2021/09/10 00:13:13;;;;;;;;;;;25.50;57.60;;;;;;490435;242;1254;-44
2021/09/10 00:15:14;;;;;;;;;;;25.50;57.60;;;;;;490583;242;1042;-44
2021/09/10 00:17:15;;;;;;;;;;;25.50;57.40;;;;;;490067;242;1393;-44
2021/09/10 00:19:17;;;;;;;;;;;25.50;57.60;;;;;;490111;242;1221;-44
2021/09/10 00:21:18;;;;;;;;;;;25.50;57.80;;;;;;490065;242;2169;-44
2021/09/10 00:23:19;;;;;;;;;;;25.50;57.70;;;;;;490144;242;1205;-44
2021/09/10 00:25:21;;;;;;;;;;;25.50;57.90;;;;;;490504;242;1065;-44
2021/09/10 00:27:22;;;;;;;;;;;25.50;57.70;;;;;;490436;242;1598;-44
2021/09/10 00:29:23;;;;;;;;;;;25.50;57.90;;;;;;490082;242;1126;-45
2021/09/10 00:31:25;;;;;;;;;;;25.50;57.70;;;;;;490469;242;1656;-45
2021/09/10 00:33:26;;;;;;;;;;;25.50;57.50;;;;;;490071;242;1066;-45
2021/09/10 00:35:27;;;;;;;;;;;25.50;57.50;;;;;;490404;242;1172;-44
2021/09/10 00:37:29;;;;;;;;;;;25.60;57.70;;;;;;490094;242;1205;-44
2021/09/10 00:39:30;;;;;;;;;;;25.50;58.00;;;;;;490602;242;1168;-45
2021/09/10 00:41:31;;;;;;;;;;;25.50;57.60;;;;;;490416;242;2122;-44
2021/09/10 00:43:32;;;;;;;;;;;25.60;57.60;;;;;;490097;242;1277;-44
2021/09/10 00:45:34;;;;;;;;;;;25.60;57.70;;;;;;490076;242;1333;-44
2021/09/10 00:47:35;;;;;;;;;;;25.60;57.70;;;;;;490240;242;1178;-45
2021/09/10 00:49:36;;;;;;;;;;;25.60;57.80;;;;;;490016;242;1160;-44
2021/09/10 00:51:38;;;;;;;;;;;25.50;57.90;;;;;;490428;242;1296;-44
2021/09/10 00:53:39;;;;;;;;;;;25.50;57.40;;;;;;490425;242;1133;-44
2021/09/10 00:55:40;;;;;;;;;;;25.60;57.60;;;;;;490115;242;1317;-45
2021/09/10 00:57:42;;;;;;;;;;;25.60;57.80;;;;;;490330;242;1315;-45
2021/09/10 00:59:43;;;;;;;;;;;25.60;57.50;;;;;;490557;242;1026;-44
2021/09/10 01:01:44;;;;;;;;;;;25.60;57.10;;;;;;490378;242;2118;-44
2021/09/10 01:03:46;;;;;;;;;;;25.50;57.00;;;;;;490397;242;1073;-44
2021/09/10 01:05:47;;;;;;;;;;;25.60;57.10;;;;;;490570;242;1308;-44
2021/09/10 01:07:49;;;;;;;;;;;25.60;56.90;;;;;;490040;242;1219;-44
2021/09/10 01:09:50;;;;;;;;;;;25.60;56.90;;;;;;490522;242;1165;-44
2021/09/10 01:11:51;;;;;;;;;;;25.60;56.70;;;;;;490165;242;1259;-44
2021/09/10 01:13:53;;;;;;;;;;;25.60;56.90;;;;;;490016;242;1261;-44
2021/09/10 01:15:54;;;;;;;;;;;25.60;57.00;;;;;;489991;242;1218;-44
2021/09/10 01:17:57;;;;;;;;;;;25.60;57.00;;;;;;490476;242;1075;-44
2021/09/10 01:19:58;;;;;;;;;;;25.60;56.80;;;;;;490525;242;1102;-44
2021/09/10 01:22:00;;;;;;;;;;;25.60;57.20;;;;;;490413;242;2188;-44
2021/09/10 01:24:01;;;;;;;;;;;25.60;57.50;;;;;;490575;242;1067;-44
2021/09/10 01:26:02;;;;;;;;;;;25.50;57.40;;;;;;490046;242;1195;-45
2021/09/10 01:28:04;;;;;;;;;;;25.60;57.40;;;;;;490022;242;1268;-44
2021/09/10 01:30:05;;;;;;;;;;;25.60;57.30;;;;;;490091;242;1092;-44
2021/09/10 01:32:08;;;;;;;;;;;25.60;57.70;;;;;;490246;242;1214;-45
2021/09/10 01:34:08;;;;;;;;;;;25.60;57.70;;;;;;490354;243;2276;-44
2021/09/10 01:36:14;;;;;;;;;;;25.60;57.60;;;;;;490379;242;1524;-44
2021/09/10 01:38:10;;;;;;;;;;;25.60;57.90;;;;;;490202;243;1470;-44
2021/09/10 01:40:12;;;;;;;;;;;25.60;57.70;;;;;;490194;242;1138;-44
2021/09/10 01:42:13;;;;;;;;;;;25.60;58.30;;;;;;490061;242;2154;-43
2021/09/10 01:44:14;;;;;;;;;;;25.60;57.80;;;;;;490501;242;1217;-45
2021/09/10 01:46:16;;;;;;;;;;;25.60;57.70;;;;;;490266;242;1143;-45
2021/09/10 01:48:17;;;;;;;;;;;25.60;57.60;;;;;;490433;242;1203;-45
2021/09/10 01:50:18;;;;;;;;;;;25.60;57.70;;;;;;490074;242;1421;-44
2021/09/10 01:52:19;;;;;;;;;;;25.60;57.90;;;;;;490131;242;1548;-44
2021/09/10 01:54:21;;;;;;;;;;;25.60;57.70;;;;;;490554;242;1199;-45
2021/09/10 01:56:22;;;;;;;;;;;25.60;57.80;;;;;;490023;242;1304;-44
2021/09/10 01:58:23;;;;;;;;;;;25.60;58.00;;;;;;490185;242;1180;-45
2021/09/10 02:00:25;;;;;;;;;;;25.60;58.00;;;;;;490486;242;1064;-44
2021/09/10 02:02:26;;;;;;;;;;;25.60;58.10;;;;;;489976;242;2205;-44
2021/09/10 02:04:27;;;;;;;;;;;25.60;58.00;;;;;;490305;242;1049;-44
2021/09/10 02:06:29;;;;;;;;;;;25.60;58.00;;;;;;490079;242;1157;-44
2021/09/10 02:08:30;;;;;;;;;;;25.60;58.20;;;;;;490461;242;1189;-44
2021/09/10 02:10:31;;;;;;;;;;;25.60;57.80;;;;;;490154;242;1067;-44
2021/09/10 02:12:33;;;;;;;;;;;25.60;58.10;;;;;;490523;242;1109;-44
2021/09/10 02:14:34;;;;;;;;;;;25.60;58.10;;;;;;490478;242;1057;-44
2021/09/10 02:16:35;;;;;;;;;;;25.60;58.20;;;;;;490514;242;1223;-45
2021/09/10 02:18:37;;;;;;;;;;;25.60;58.40;;;;;;490156;242;1113;-44
2021/09/10 02:20:38;;;;;;;;;;;25.60;58.30;;;;;;490471;242;1089;-45
2021/09/10 02:22:39;;;;;;;;;;;25.60;58.10;;;;;;490065;242;2130;-44
2021/09/10 02:24:41;;;;;;;;;;;25.60;58.30;;;;;;490569;242;1150;-44
2021/09/10 02:26:42;;;;;;;;;;;25.60;58.20;;;;;;490393;242;1320;-44
2021/09/10 02:28:43;;;;;;;;;;;25.60;58.30;;;;;;490027;242;1199;-44
2021/09/10 02:30:44;;;;;;;;;;;25.60;58.10;;;;;;490230;242;1119;-44
2021/09/10 02:32:46;;;;;;;;;;;25.60;58.40;;;;;;490357;242;1219;-45
2021/09/10 02:34:47;;;;;;;;;;;25.60;58.20;;;;;;490296;242;1164;-44
2021/09/10 02:36:48;;;;;;;;;;;25.60;58.40;;;;;;489994;242;1335;-45
2021/09/10 02:38:50;;;;;;;;;;;25.60;58.20;;;;;;490571;242;1237;-44
2021/09/10 02:40:51;;;;;;;;;;;25.60;58.50;;;;;;490428;242;1593;-44
2021/09/10 02:42:52;;;;;;;;;;;25.60;58.30;;;;;;490140;242;2181;-44
2021/09/10 02:44:54;;;;;;;;;;;25.70;58.60;;;;;;490520;242;1212;-44
2021/09/10 02:46:55;;;;;;;;;;;25.60;58.50;;;;;;490277;242;1123;-44
2021/09/10 02:48:56;;;;;;;;;;;25.60;58.30;;;;;;490109;242;1144;-44
2021/09/10 02:50:58;;;;;;;;;;;25.70;58.30;;;;;;490039;242;1357;-44
2021/09/10 02:52:59;;;;;;;;;;;25.60;58.40;;;;;;490359;242;1190;-45
2021/09/10 02:55:00;;;;;;;;;;;25.60;58.30;;;;;;490040;242;1311;-44
2021/09/10 02:57:02;;;;;;;;;;;25.60;58.10;;;;;;490202;242;1116;-45
2021/09/10 02:59:03;;;;;;;;;;;25.60;58.50;;;;;;490104;242;1191;-44
2021/09/10 03:01:04;;;;;;;;;;;25.60;58.00;;;;;;490050;242;1255;-45
2021/09/10 03:03:05;;;;;;;;;;;25.60;57.60;;;;;;490035;242;2194;-44
2021/09/10 03:05:07;;;;;;;;;;;25.60;58.20;;;;;;490533;242;1231;-44
2021/09/10 03:07:08;;;;;;;;;;;25.60;58.10;;;;;;490153;242;1156;-45
2021/09/10 03:09:09;;;;;;;;;;;25.60;57.90;;;;;;490453;243;1291;-44
2021/09/10 03:11:11;;;;;;;;;;;25.60;58.20;;;;;;490210;242;1381;-44
2021/09/10 03:13:12;;;;;;;;;;;25.60;58.30;;;;;;490410;242;1196;-44
2021/09/10 03:15:13;;;;;;;;;;;25.70;58.20;;;;;;490461;242;1191;-44
2021/09/10 03:17:15;;;;;;;;;;;25.60;58.20;;;;;;490030;242;1159;-45
2021/09/10 03:19:16;;;;;;;;;;;25.60;58.20;;;;;;490169;242;1621;-45
2021/09/10 03:21:17;;;;;;;;;;;25.60;58.30;;;;;;489999;242;1257;-44
2021/09/10 03:23:19;;;;;;;;;;;25.60;58.30;;;;;;490518;242;2188;-45
2021/09/10 03:25:20;;;;;;;;;;;25.70;58.10;;;;;;490572;242;1167;-44
2021/09/10 03:27:21;;;;;;;;;;;25.60;58.50;;;;;;490408;242;1291;-45
2021/09/10 03:29:23;;;;;;;;;;;25.60;58.00;;;;;;490568;242;986;-45
2021/09/10 03:31:24;;;;;;;;;;;25.70;58.10;;;;;;490475;240;1170;-44
2021/09/10 03:33:25;;;;;;;;;;;25.60;58.20;;;;;;490250;242;1209;-44
2021/09/10 03:35:27;;;;;;;;;;;25.70;58.40;;;;;;490425;242;1054;-44
2021/09/10 03:37:28;;;;;;;;;;;25.70;58.40;;;;;;490142;242;1036;-45
2021/09/10 03:39:29;;;;;;;;;;;25.60;58.00;;;;;;490582;242;1048;-44
2021/09/10 03:41:31;;;;;;;;;;;25.70;58.10;;;;;;490552;242;1062;-44
2021/09/10 03:43:32;;;;;;;;;;;25.70;58.40;;;;;;490121;242;2193;-45
2021/09/10 03:45:33;;;;;;;;;;;25.60;58.40;;;;;;490124;242;1089;-44
2021/09/10 03:47:34;;;;;;;;;;;25.70;58.20;;;;;;490428;242;1261;-45
2021/09/10 03:49:37;;;;;;;;;;;25.60;58.10;;;;;;490455;242;1081;-45
2021/09/10 03:51:38;;;;;;;;;;;25.60;58.00;;;;;;490127;242;1242;-44
2021/09/10 03:53:39;;;;;;;;;;;25.60;58.20;;;;;;490233;242;1224;-44
2021/09/10 03:55:41;;;;;;;;;;;25.60;58.00;;;;;;490095;242;1043;-45
2021/09/10 03:57:42;;;;;;;;;;;25.60;57.90;;;;;;490100;242;1349;-44
2021/09/10 03:59:43;;;;;;;;;;;25.70;57.80;;;;;;490129;242;1081;-44
2021/09/10 04:01:44;;;;;;;;;;;25.70;57.90;;;;;;490363;242;1101;-44
2021/09/10 04:03:46;;;;;;;;;;;25.60;57.90;;;;;;490056;242;2197;-44
2021/09/10 04:05:47;;;;;;;;;;;25.60;58.00;;;;;;490029;242;1216;-44
2021/09/10 04:07:48;;;;;;;;;;;25.70;58.00;;;;;;490130;241;1323;-44
2021/09/10 04:09:50;;;;;;;;;;;25.60;57.60;;;;;;490107;242;1135;-44
2021/09/10 04:11:51;;;;;;;;;;;25.70;57.70;;;;;;490408;240;1162;-44
2021/09/10 04:13:52;;;;;;;;;;;25.70;57.80;;;;;;490098;242;1306;-45
2021/09/10 04:15:54;;;;;;;;;;;25.70;57.80;;;;;;490461;242;1252;-44
2021/09/10 04:17:55;;;;;;;;;;;25.70;57.90;;;;;;490070;242;1201;-44
2021/09/10 04:19:56;;;;;;;;;;;25.70;57.90;;;;;;490041;242;1283;-45
2021/09/10 04:21:58;;;;;;;;;;;25.70;57.80;;;;;;489975;242;1208;-44
2021/09/10 04:23:59;;;;;;;;;;;25.70;58.20;;;;;;490027;242;2192;-44
2021/09/10 04:26:00;;;;;;;;;;;25.70;58.00;;;;;;490069;240;1326;-44
2021/09/10 04:28:02;;;;;;;;;;;25.70;58.40;;;;;;490471;242;1276;-44
2021/09/10 04:30:03;;;;;;;;;;;25.70;58.20;;;;;;490142;242;1213;-44
2021/09/10 04:32:04;;;;;;;;;;;25.70;58.20;;;;;;489924;242;1180;-44
2021/09/10 04:34:06;;;;;;;;;;;25.70;58.10;;;;;;490261;242;1075;-44
2021/09/10 04:36:07;;;;;;;;;;;25.70;57.90;;;;;;489941;242;1207;-45
2021/09/10 04:38:09;;;;;;;;;;;25.70;58.10;;;;;;490080;242;1161;-44
2021/09/10 04:40:10;;;;;;;;;;;25.70;57.90;;;;;;489970;242;1334;-45
2021/09/10 04:42:11;;;;;;;;;;;25.70;58.30;;;;;;490080;242;1214;-44
2021/09/10 04:44:12;;;;;;;;;;;25.70;58.20;;;;;;490037;242;2193;-44
2021/09/10 04:46:14;;;;;;;;;;;25.70;58.00;;;;;;489917;242;1287;-44
2021/09/10 04:48:15;;;;;;;;;;;25.70;58.30;;;;;;490205;242;1162;-45
2021/09/10 04:50:16;;;;;;;;;;;25.70;58.00;;;;;;489881;242;1136;-45
2021/09/10 04:52:18;;;;;;;;;;;25.70;58.10;;;;;;489977;242;1176;-44
2021/09/10 04:54:19;;;;;;;;;;;25.70;57.90;;;;;;490081;242;1261;-44
2021/09/10 04:56:20;;;;;;;;;;;25.70;57.90;;;;;;490083;242;1352;-44
2021/09/10 04:58:23;;;;;;;;;;;25.70;57.80;;;;;;490099;242;1229;-44
2021/09/10 05:00:23;;;;;;;;;;;25.70;58.10;;;;;;489971;242;1423;-44
2021/09/10 05:02:25;;;;;;;;;;;25.70;57.80;;;;;;490075;242;1187;-44
2021/09/10 05:04:27;;;;;;;;;;;25.70;58.10;;;;;;489842;242;2118;-44
2021/09/10 05:06:29;;;;;;;;;;;25.80;58.10;;;;;;489801;242;1140;-44
2021/09/10 05:08:30;;;;;;;;;;;25.80;57.90;;;;;;490054;242;1269;-45
2021/09/10 05:10:31;;;;;;;;;;;25.80;57.80;;;;;;489944;242;1212;-44
2021/09/10 05:12:32;;;;;;;;;;;25.80;57.70;;;;;;489963;242;1221;-44
2021/09/10 05:14:34;;;;;;;;;;;25.80;56.90;;;;;;489829;242;1120;-44
2021/09/10 05:16:35;;;;;;;;;;;25.80;57.20;;;;;;489809;242;1240;-44
2021/09/10 05:18:36;;;;;;;;;;;25.80;56.70;;;;;;489902;242;1096;-44
2021/09/10 05:20:37;;;;;;;;;;;25.80;56.60;;;;;;489762;242;1078;-45
2021/09/10 05:22:39;;;;;;;;;;;25.70;56.70;;;;;;489722;242;1225;-45
2021/09/10 05:24:41;;;;;;;;;;;25.80;56.90;;;;;;489838;242;2122;-44
2021/09/10 05:26:42;;;;;;;;;;;25.80;57.10;;;;;;489890;242;1332;-44
2021/09/10 05:28:44;;;;;;;;;;;25.80;57.00;;;;;;490066;242;1155;-44
2021/09/10 05:30:45;;;;;;;;;;;25.80;57.00;;;;;;489784;242;1105;-44
2021/09/10 05:32:46;;;;;;;;;;;25.80;57.00;;;;;;489819;242;1104;-44
2021/09/10 05:34:47;;;;;;;;;;;25.80;56.90;;;;;;489878;242;1106;-45
2021/09/10 05:36:49;;;;;;;;;;;25.80;57.00;;;;;;489755;242;1279;-45
2021/09/10 05:38:50;;;;;;;;;;;25.80;57.30;;;;;;489849;242;1232;-45
2021/09/10 05:40:51;;;;;;;;;;;25.80;57.10;;;;;;489813;242;1195;-44
2021/09/10 05:42:53;;;;;;;;;;;25.80;56.80;;;;;;490031;242;1173;-44
2021/09/10 05:44:54;;;;;;;;;;;25.80;57.00;;;;;;490028;242;2113;-44
2021/09/10 05:46:55;;;;;;;;;;;25.80;57.00;;;;;;489387;242;1276;-45
2021/09/10 05:48:57;;;;;;;;;;;25.80;56.80;;;;;;489343;242;1235;-45
2021/09/10 05:50:58;;;;;;;;;;;25.80;57.00;;;;;;489273;242;977;-45
2021/09/10 05:53:00;;;;;;;;;;;25.80;56.80;;;;;;489346;242;1049;-44
2021/09/10 05:55:01;;;;;;;;;;;25.80;57.20;;;;;;489405;242;1155;-45
2021/09/10 05:57:02;;;;;;;;;;;25.80;57.00;;;;;;489416;242;1324;-44
2021/09/10 05:59:04;;;;;;;;;;;25.80;57.20;;;;;;489311;242;1125;-45
2021/09/10 06:01:05;;;;;;;;;;;25.80;57.20;;;;;;489450;242;1071;-44
2021/09/10 06:03:07;;;;;;;;;;;25.80;57.20;;;;;;489319;242;1193;-44
2021/09/10 06:05:08;;;;;;;;;;;25.80;57.20;;;;;;489494;242;1175;-45
2021/09/10 06:07:09;;;;;;;;;;;25.80;57.30;;;;;;489257;242;1196;-45
2021/09/10 06:09:11;;;;;;;;;;;25.80;57.50;;;;;;489302;242;1076;-44
2021/09/10 06:11:12;;;;;;;;;;;25.80;57.60;;;;;;489278;242;1206;-44
2021/09/10 06:13:13;;;;;;;;;;;25.80;58.10;;;;;;489716;242;1259;-45
2021/09/10 06:15:14;;;;;;;;;;;25.80;57.60;;;;;;489776;242;878;-44
2021/09/10 06:17:16;;;;;;;;;;;25.80;57.70;;;;;;490216;242;1192;-44
2021/09/10 06:19:17;;;;;;;;;;;25.80;57.40;;;;;;490224;242;865;-45
2021/09/10 06:21:18;;;;;;;;;;;25.80;57.60;;;;;;490047;242;1150;-45
2021/09/10 06:23:20;;;;;;;;;;;25.80;57.80;;;;;;490176;242;2177;-43
2021/09/10 06:25:21;;;;;;;;;;;25.80;57.50;;;;;;490103;242;1169;-45
2021/09/10 06:27:22;;;;;;;;;;;25.80;57.30;;;;;;489673;242;1253;-45
2021/09/10 06:29:24;;;;;;;;;;;25.80;57.30;;;;;;489703;242;1144;-44
2021/09/10 06:31:25;;;;;;;;;;;25.80;57.70;;;;;;490095;242;1197;-45
2021/09/10 06:33:26;;;;;;;;;;;25.80;57.70;;;;;;489673;242;942;-44
2021/09/10 06:35:28;;;;;;;;;;;25.80;57.50;;;;;;490115;242;1120;-44
2021/09/10 06:37:29;;;;;;;;;;;25.80;57.60;;;;;;490079;242;1073;-43
2021/09/10 06:39:30;;;;;;;;;;;25.80;57.70;;;;;;490102;242;1045;-44
2021/09/10 06:41:32;;;;;;;;;;;25.80;57.90;;;;;;490045;242;1169;-43
2021/09/10 06:43:33;;;;;;;;;;;25.80;57.50;;;;;;490122;242;2193;-44
2021/09/10 06:45:34;;;;;;;;;;;25.80;57.60;;;;;;490128;242;1176;-44
2021/09/10 06:47:36;;;;;;;;;;;25.80;57.30;;;;;;489622;242;1056;-45
2021/09/10 06:49:37;;;;;;;;;;;25.90;57.50;;;;;;489520;242;1626;-44
2021/09/10 06:51:38;;;;;;;;;;;25.80;57.80;;;;;;489978;242;1151;-44
2021/09/10 06:53:39;;;;;;;;;;;25.80;57.90;;;;;;489682;242;847;-44
2021/09/10 06:55:41;;;;;;;;;;;25.80;58.00;;;;;;489706;240;1467;-44
2021/09/10 06:57:42;;;;;;;;;;;25.80;57.50;;;;;;489996;242;1185;-44
2021/09/10 06:59:43;;;;;;;;;;;25.80;57.70;;;;;;489976;242;975;-45
2021/09/10 07:01:45;;;;;;;;;;;25.80;57.30;;;;;;489743;242;1284;-45
2021/09/10 07:03:46;;;;;;;;;;;25.80;57.10;;;;;;490005;242;2181;-45
2021/09/10 07:05:47;;;;;;;;;;;25.80;56.80;;;;;;489524;242;1086;-44
2021/09/10 07:07:51;;;;;;;;;;;25.80;56.60;;;;;;490053;242;1136;-45
2021/09/10 07:09:51;;;;;;;;;;;25.90;56.10;;;;;;489513;240;2226;-45
2021/09/10 07:11:52;;;;;;;;;;;25.80;55.50;;;;;;489490;242;1151;-45
2021/09/10 07:13:55;;;;;;;;;;;25.80;55.10;;;;;;489603;242;1107;-44
2021/09/10 07:15:56;;;;;;;;;;;25.80;54.60;;;;;;490022;242;1168;-44
2021/09/10 07:17:57;;;;;;;;;;;25.80;54.50;;;;;;490043;242;1040;-45
2021/09/10 07:19:59;;;;;;;;;;;25.80;54.40;;;;;;489906;242;844;-44
2021/09/10 07:22:00;;;;;;;;;;;25.80;54.40;;;;;;489813;242;1161;-44
2021/09/10 07:24:01;;;;;;;;;;;25.80;54.40;;;;;;489494;242;2193;-45
2021/09/10 07:26:03;;;;;;;;;;;25.80;54.40;;;;;;489500;242;1130;-44
2021/09/10 07:28:04;;;;;;;;;;;25.80;54.40;;;;;;490025;242;1042;-45
2021/09/10 07:30:06;;;;;;;;;;;25.80;54.40;;;;;;489993;242;868;-44
2021/09/10 07:32:07;;;;;;;;;;;25.80;54.40;;;;;;489945;242;1105;-44
2021/09/10 07:34:08;;;;;;;;;;;25.80;54.40;;;;;;489585;242;897;-44
2021/09/10 07:36:10;;;;;;;;;;;25.80;54.40;;;;;;489544;242;959;-44
2021/09/10 07:38:11;;;;;;;;;;;25.80;54.30;;;;;;489985;242;1075;-45
2021/09/10 07:40:12;;;;;;;;;;;25.90;54.40;;;;;;489352;242;1120;-44
2021/09/10 07:42:13;;;;;;;;;;;25.80;54.40;;;;;;489812;242;1205;-45
2021/09/10 07:44:16;;;;;;;;;;;25.80;54.40;;;;;;489967;242;2189;-44
2021/09/10 07:46:16;;;;;;;;;;;25.80;54.40;;;;;;489901;242;2093;-45
2021/09/10 07:48:17;;;;;;;;;;;25.80;54.40;;;;;;489521;242;1087;-45
2021/09/10 07:50:19;;;;;;;;;;;25.80;54.40;;;;;;489882;242;1152;-45
2021/09/10 07:52:20;;;;;;;;;;;25.80;54.40;;;;;;489934;242;1136;-45
2021/09/10 07:54:21;;;;;;;;;;;25.80;54.40;;;;;;489990;242;1316;-44
2021/09/10 07:56:23;;;;;;;;;;;25.80;54.40;;;;;;489973;242;1188;-45
2021/09/10 07:58:24;;;;;;;;;;;25.80;54.50;;;;;;489460;242;1200;-45
2021/09/10 08:00:25;;;;;;;;;;;25.80;54.50;;;;;;489943;242;884;-44
2021/09/10 08:02:27;;;;;;;;;;;25.80;54.50;;;;;;489806;242;1076;-44
2021/09/10 08:04:28;;;;;;;;;;;25.80;54.50;;;;;;490009;242;2199;-44
2021/09/10 08:06:29;;;;;;;;;;;25.80;54.50;;;;;;489521;242;1109;-44
2021/09/10 08:08:31;;;;;;;;;;;25.90;54.50;;;;;;490001;242;1175;-45
2021/09/10 08:10:32;;;;;;;;;;;25.80;54.50;;;;;;490009;242;1078;-44
2021/09/10 08:12:33;;;;;;;;;;;25.90;54.60;;;;;;489930;242;1114;-45
2021/09/10 08:14:35;;;;;;;;;;;25.80;54.50;;;;;;489533;242;1109;-45
2021/09/10 08:16:36;;;;;;;;;;;25.90;54.60;;;;;;489920;242;1097;-44
2021/09/10 08:18:37;;;;;;;;;;;25.90;54.60;;;;;;489983;242;1186;-44
2021/09/10 08:20:39;;;;;;;;;;;25.80;54.60;;;;;;489439;242;1031;-44
2021/09/10 08:22:40;;;;;;;;;;;25.90;54.70;;;;;;489452;242;1180;-45
2021/09/10 08:24:41;;;;;;;;;;;25.90;54.70;;;;;;489987;242;2177;-44
2021/09/10 08:26:42;;;;;;;;;;;25.80;54.50;;;;;;489774;242;1174;-44
2021/09/10 08:28:44;;;;;;;;;;;25.90;54.60;;;;;;489994;242;1074;-44
2021/09/10 08:30:46;;;;;;;;;;;25.90;54.60;;;;;;489574;242;1095;-45
2021/09/10 08:32:46;;;;;;;;;;;25.90;54.70;;;;;;489707;242;2217;-44
2021/09/10 08:34:48;;;;;;;;;;;25.80;54.60;;;;;;489978;242;1063;-45
2021/09/10 08:36:49;;;;;;;;;;;25.90;54.60;;;;;;489954;242;1159;-45
2021/09/10 08:38:50;;;;;;;;;;;25.80;54.50;;;;;;490032;242;1125;-45
2021/09/10 08:40:52;;;;;;;;;;;25.90;54.60;;;;;;489543;242;1222;-44
2021/09/10 08:42:53;;;;;;;;;;;25.90;54.60;;;;;;489983;242;1190;-44
2021/09/10 08:44:54;;;;;;;;;;;25.90;54.60;;;;;;489712;240;2188;-44
2021/09/10 08:46:56;;;;;;;;;;;25.90;54.40;;;;;;489476;242;1169;-44
2021/09/10 08:48:57;;;;;;;;;;;25.80;54.50;;;;;;489996;242;1032;-45
2021/09/10 08:50:58;;;;;;;;;;;25.70;54.70;;;;;;489900;242;916;-44
2021/09/10 08:53:00;;;;;;;;;;;25.30;55.60;;;;;;489983;242;1037;-44
2021/09/10 08:55:01;;;;;;;;;;;24.70;56.90;;;;;;490019;242;835;-44
2021/09/10 08:57:02;;;;;;;;;;;24.40;57.80;;;;;;489988;242;1236;-44
2021/09/10 08:59:04;;;;;;;;;;;24.20;58.60;;;;;;489551;242;1082;-44
2021/09/10 09:01:05;;;;;;;;;;;23.90;59.40;;;;;;490024;242;924;-44
2021/09/10 09:03:06;;;;;;;;;;;23.70;59.90;;;;;;489495;242;1041;-44
2021/09/10 09:05:08;;;;;;;;;;;23.50;60.60;;;;;;489466;242;2173;-44
2021/09/10 09:07:09;;;;;;;;;;;23.40;60.90;;;;;;489932;242;1166;-44
2021/09/10 09:09:10;;;;;;;;;;;23.20;61.40;;;;;;489965;242;944;-44
2021/09/10 09:11:11;;;;;;;;;;;23.10;61.60;;;;;;489502;242;988;-44
2021/09/10 09:13:13;;;;;;;;;;;23.00;61.70;;;;;;489913;242;1080;-44
2021/09/10 09:15:14;;;;;;;;;;;22.90;62.20;;;;;;489958;242;885;-44
2021/09/10 09:17:16;;;;;;;;;;;22.80;62.40;;;;;;489315;242;1399;-43
2021/09/10 09:19:17;;;;;;;;;;;22.60;62.90;;;;;;489362;242;1104;-44
2021/09/10 09:21:18;;;;;;;;;;;22.50;63.10;;;;;;489315;242;1151;-44
2021/09/10 09:23:19;;;;;;;;;;;22.50;63.30;;;;;;489390;242;1389;-44
2021/09/10 09:25:21;;;;;;;;;;;22.40;63.30;;;;;;489915;242;2169;-44
2021/09/10 09:27:22;;;;;;;;;;;22.40;63.50;;;;;;489883;242;1143;-44
2021/09/10 09:29:23;;;;;;;;;;;22.30;63.50;;;;;;489904;242;856;-44
2021/09/10 09:31:25;;;;;;;;;;;22.30;63.60;;;;;;489849;242;1184;-44
2021/09/10 09:33:26;;;;;;;;;;;22.20;63.90;;;;;;489479;242;1090;-44
2021/09/10 09:35:27;;;;;;;;;;;22.20;63.90;;;;;;489964;242;1150;-44
2021/09/10 09:37:29;;;;;;;;;;;22.10;64.00;;;;;;489518;242;889;-44
2021/09/10 09:39:30;;;;;;;;;;;22.10;64.10;;;;;;489547;242;858;-44
2021/09/10 09:41:31;;;;;;;;;;;22.10;64.20;;;;;;489515;242;1176;-43
2021/09/10 09:43:33;;;;;;;;;;;22.00;64.30;;;;;;489914;242;840;-43
2021/09/10 09:45:34;;;;;;;;;;;21.90;64.40;;;;;;489355;242;2196;-44
2021/09/10 09:47:35;;;;;;;;;;;21.90;64.50;;;;;;489332;242;1181;-44
2021/09/10 09:49:37;;;;;;;;;;;21.90;64.60;;;;;;489494;242;872;-43
2021/09/10 09:51:38;;;;;;;;;;;21.90;64.50;;;;;;489516;242;1146;-44
2021/09/10 09:53:39;;;;;;;;;;;21.80;64.50;;;;;;489908;242;1057;-44
2021/09/10 09:55:40;;;;;;;;;;;21.80;64.80;;;;;;489459;242;1325;-43
2021/09/10 09:57:42;;;;;;;;;;;21.80;64.70;;;;;;489349;242;1223;-43
2021/09/10 09:59:43;;;;;;;;;;;21.80;64.80;;;;;;489994;242;1098;-44
2021/09/10 10:01:44;;;;;;;;;;;21.70;64.80;;;;;;489908;242;1109;-44
2021/09/10 10:03:46;;;;;;;;;;;21.70;64.90;;;;;;489476;242;1133;-44
2021/09/10 10:05:47;;;;;;;;;;;21.60;65.00;;;;;;489524;242;2184;-44
2021/09/10 10:07:48;;;;;;;;;;;21.60;65.00;;;;;;489972;242;1038;-44
2021/09/10 10:09:51;;;;;;;;;;;21.60;65.10;;;;;;489884;242;830;-43
2021/09/10 10:11:51;;;;;;;;;;;21.50;65.10;;;;;;489732;242;2253;-44
2021/09/10 10:13:52;;;;;;;;;;;21.50;65.30;;;;;;489894;242;859;-44
2021/09/10 10:15:54;;;;;;;;;;;21.50;65.30;;;;;;489442;242;1166;-44
2021/09/10 10:17:55;;;;;;;;;;;21.40;65.20;;;;;;489471;242;1091;-44
2021/09/10 10:19:56;;;;;;;;;;;21.40;65.40;;;;;;489483;242;884;-44
2021/09/10 10:21:58;;;;;;;;;;;21.40;65.40;;;;;;489952;242;1288;-44
2021/09/10 10:23:59;;;;;;;;;;;21.30;65.50;;;;;;489574;242;1102;-44
2021/09/10 10:26:00;;;;;;;;;;;21.40;65.40;;;;;;489546;242;2180;-44
2021/09/10 10:28:01;;;;;;;;;;;21.40;65.30;;;;;;489911;242;1158;-44
2021/09/10 10:30:03;;;;;;;;;;;21.40;65.30;;;;;;489544;242;1357;-45
2021/09/10 10:32:04;;;;;;;;;;;21.40;65.40;;;;;;489923;242;1117;-44
2021/09/10 10:34:05;;;;;;;;;;;21.30;65.30;;;;;;489923;242;850;-43
2021/09/10 10:36:07;;;;;;;;;;;21.30;65.50;;;;;;489790;242;900;-44
2021/09/10 10:38:08;;;;;;;;;;;21.20;65.60;;;;;;489855;242;1051;-44
2021/09/10 10:40:09;;;;;;;;;;;21.20;65.50;;;;;;490022;242;882;-44
2021/09/10 10:42:11;;;;;;;;;;;21.20;65.60;;;;;;489943;243;1225;-44
2021/09/10 10:44:12;;;;;;;;;;;21.20;65.60;;;;;;489591;242;1127;-44
2021/09/10 10:46:13;;;;;;;;;;;21.20;65.60;;;;;;489948;242;2188;-44
2021/09/10 10:48:15;;;;;;;;;;;21.20;65.60;;;;;;489998;242;1099;-44
2021/09/10 10:50:16;;;;;;;;;;;21.20;65.70;;;;;;489821;242;1093;-43
2021/09/10 10:52:17;;;;;;;;;;;21.10;65.70;;;;;;489434;242;1232;-44
2021/09/10 10:54:19;;;;;;;;;;;21.20;65.70;;;;;;489967;242;1097;-44
2021/09/10 10:56:20;;;;;;;;;;;21.10;65.70;;;;;;489501;242;1258;-44
2021/09/10 10:58:21;;;;;;;;;;;21.10;65.70;;;;;;489554;242;1090;-44
2021/09/10 11:00:23;;;;;;;;;;;21.10;65.80;;;;;;489975;242;1040;-44
2021/09/10 11:02:28;;;;;;;;;;;21.00;65.90;;;;;;489930;242;1213;-44
2021/09/10 11:04:27;;;;;;;;;;;21.00;66.00;;;;;;489302;243;2499;-44
2021/09/10 11:06:28;;;;;;;;;;;21.00;65.90;;;;;;489425;242;2169;-44
2021/09/10 11:08:29;;;;;;;;;;;21.00;66.10;;;;;;489876;242;1030;-43
2021/09/10 11:10:31;;;;;;;;;;;21.00;66.10;;;;;;489900;242;1145;-44
2021/09/10 11:12:32;;;;;;;;;;;20.90;66.10;;;;;;489365;242;1222;-43
2021/09/10 11:14:33;;;;;;;;;;;20.90;66.00;;;;;;489499;242;1115;-44
2021/09/10 11:16:35;;;;;;;;;;;20.90;66.10;;;;;;489446;242;1106;-43
2021/09/10 11:18:36;;;;;;;;;;;20.90;66.10;;;;;;489951;242;1086;-44
2021/09/10 11:20:37;;;;;;;;;;;20.90;66.10;;;;;;489780;242;1140;-43
2021/09/10 11:22:39;;;;;;;;;;;20.90;66.20;;;;;;489232;242;1069;-44
2021/09/10 11:24:41;;;;;;;;;;;20.90;66.00;;;;;;489444;242;857;-43
2021/09/10 11:26:41;;;;;;;;;;;20.80;66.20;;;;;;489753;243;2197;-44
2021/09/10 11:28:43;;;;;;;;;;;20.90;66.10;;;;;;489937;242;894;-44
2021/09/10 11:30:44;;;;;;;;;;;20.80;66.10;;;;;;489963;243;2324;-43
2021/09/10 11:32:45;;;;;;;;;;;20.80;66.20;;;;;;489950;242;1486;-44
2021/09/10 11:34:46;;;;;;;;;;;20.80;66.10;;;;;;489895;242;989;-44
2021/09/10 11:36:48;;;;;;;;;;;20.80;66.30;;;;;;489758;242;1073;-44
2021/09/10 11:38:49;;;;;;;;;;;20.80;66.30;;;;;;489491;242;1237;-43
2021/09/10 11:40:50;;;;;;;;;;;20.80;66.30;;;;;;489974;242;1230;-43
2021/09/10 11:42:52;;;;;;;;;;;20.70;66.20;;;;;;489496;242;1289;-44
2021/09/10 11:44:53;;;;;;;;;;;20.70;66.40;;;;;;489523;242;1056;-44
2021/09/10 11:46:54;;;;;;;;;;;20.70;66.30;;;;;;489893;242;2192;-44
2021/09/10 11:48:59;;;;;;;;;;;20.70;66.40;;;;;;489553;242;1197;-44
2021/09/10 11:50:57;;;;;;;;;;;20.70;66.40;;;;;;489715;243;1370;-43
2021/09/10 11:52:58;;;;;;;;;;;20.70;66.20;;;;;;489922;242;1023;-43
2021/09/10 11:55:00;;;;;;;;;;;20.60;66.30;;;;;;489969;242;940;-43
2021/09/10 11:57:01;;;;;;;;;;;20.70;66.50;;;;;;489654;242;1041;-43